Ben Franklin, Texas
Current Conditions -  °F | °C
As of 8:55 AM on Monday 22 Dec 2014 (Local Time) from KPRX Reporting Station
Broken Clouds Broken Clouds  
Wind Chill: 55°   Ceiling: 3200
Heat Index: 55°   Visibility: 10mi
Dew Point: 52°   Wind: 13mph
Humidity: 88%   Direction: 180°S
Pressure: 29.63"   Gusts: NA
Location:  33.48°N, 95.77°W
Report Text: KPRX 221455Z 18011KT 10SM FEW018 SCT028 BKN032 13/11 A2963 RMK AO1 57003
Loading
Personal Weather Stations






























Interactive Weather Map New forecast layout! Learn more

10-Day Weather Forecast

Advertisements
Track Severe Weather on mobile